Time;durP1;ratioP1;P1;durP2;ratioP2;P2;SDS_P1;SDS_P2;PMS_P1;PMS_P2;Temp;Humidity;BMP_temperature;BMP_pressure;BME280_temperature;BME280_humidity;BME280_pressure;Samples;Min_cycle;Max_cycle;Signal;HPM_P1;HPM_P2
2020/12/24 00:03:50;;;;;;;2.70;2.50;;;13.70;48.80;;;;;;10413940;28;20622;-74
2020/12/24 00:08:53;;;;;;;2.50;2.30;;;13.70;48.70;;;;;;10421388;28;20229;-74
2020/12/24 00:13:56;;;;;;;2.40;2.30;;;13.80;48.60;;;;;;10413995;28;20594;-74
2020/12/24 00:18:58;;;;;;;2.70;2.50;;;13.80;48.30;;;;;;10408944;28;20236;-74
2020/12/24 00:24:01;;;;;;;2.80;2.60;;;13.80;48.30;;;;;;10420231;28;20233;-74
2020/12/24 00:29:06;;;;;;;3.27;3.07;;;13.70;48.30;;;;;;10412449;28;20224;-74
2020/12/24 00:34:09;;;;;;;3.40;3.10;;;13.70;48.20;;;;;;10422710;28;20237;-74
2020/12/24 00:39:12;;;;;;;2.83;2.63;;;13.60;48.30;;;;;;10415653;28;20237;-74
2020/12/24 00:44:15;;;;;;;3.03;2.30;;;13.60;48.60;;;;;;10413504;28;20243;-74
2020/12/24 00:49:17;;;;;;;2.43;1.77;;;13.50;48.40;;;;;;10417347;28;20621;-74
2020/12/24 00:54:20;;;;;;;1.73;1.63;;;13.50;48.60;;;;;;10413244;28;20243;-74
2020/12/24 00:59:22;;;;;;;1.17;1.17;;;13.50;48.90;;;;;;10413949;28;20229;-74
2020/12/24 01:04:24;;;;;;;1.10;1.00;;;13.50;48.90;;;;;;10421351;28;20237;-74
2020/12/24 01:09:27;;;;;;;2.30;1.00;;;13.50;48.90;;;;;;10407135;28;20237;-74
2020/12/24 01:14:29;;;;;;;1.10;1.10;;;13.50;48.90;;;;;;10408623;28;20244;-74
2020/12/24 01:19:31;;;;;;;1.30;1.20;;;13.50;48.90;;;;;;10405907;28;20238;-74
2020/12/24 01:24:34;;;;;;;0.83;0.83;;;13.50;49.10;;;;;;10410366;28;20352;-74
2020/12/24 01:29:36;;;;;;;1.30;1.10;;;13.50;49.00;;;;;;10412975;28;20225;-74
2020/12/24 01:34:39;;;;;;;2.10;1.20;;;13.50;49.00;;;;;;10423625;28;20740;-74
2020/12/24 01:39:42;;;;;;;1.40;1.30;;;13.50;48.90;;;;;;10417184;28;20261;-74
2020/12/24 01:44:45;;;;;;;1.57;1.33;;;13.50;49.10;;;;;;10425713;28;20226;-74
2020/12/24 01:49:47;;;;;;;1.67;1.47;;;13.40;49.20;;;;;;10425165;28;20229;-74
2020/12/24 01:54:51;;;;;;;1.70;1.30;;;13.40;49.10;;;;;;10422194;28;20235;-74
2020/12/24 01:59:55;;;;;;;2.20;1.10;;;13.50;49.20;;;;;;10415419;28;20229;-74
2020/12/24 02:04:57;;;;;;;0.93;0.80;;;13.50;49.20;;;;;;10418427;28;20588;-74
2020/12/24 02:10:00;;;;;;;0.80;0.80;;;13.50;48.90;;;;;;10413166;28;20576;-74
2020/12/24 02:15:03;;;;;;;2.10;1.90;;;13.40;49.00;;;;;;10423627;28;20221;-73
2020/12/24 02:20:05;;;;;;;1.23;1.13;;;13.50;49.00;;;;;;10417154;28;20221;-73
2020/12/24 02:25:08;;;;;;;1.00;1.00;;;13.40;49.00;;;;;;10412130;28;20237;-73
2020/12/24 02:30:10;;;;;;;1.40;1.10;;;13.40;49.00;;;;;;10418398;28;20693;-74
2020/12/24 02:35:12;;;;;;;0.90;0.90;;;13.40;48.90;;;;;;10413953;28;20229;-74
2020/12/24 02:40:15;;;;;;;0.80;0.80;;;13.40;48.80;;;;;;10419665;28;20304;-74
2020/12/24 02:45:18;;;;;;;1.90;1.10;;;13.40;48.80;;;;;;10414350;28;20225;-74
2020/12/24 02:50:20;;;;;;;1.03;1.00;;;13.40;48.90;;;;;;10419644;28;20243;-74
2020/12/24 02:55:23;;;;;;;1.37;1.00;;;13.40;48.90;;;;;;10415104;28;20232;-73
2020/12/24 03:00:25;;;;;;;1.23;1.10;;;13.40;48.40;;;;;;10425627;28;20600;-74
2020/12/24 03:05:27;;;;;;;0.80;0.80;;;13.40;48.00;;;;;;10418832;28;20642;-74
2020/12/24 03:10:30;;;;;;;1.17;0.87;;;13.30;47.80;;;;;;10420166;28;20239;-74
2020/12/24 03:15:32;;;;;;;0.80;0.80;;;13.30;47.50;;;;;;10412858;28;20233;-74
2020/12/24 03:20:34;;;;;;;0.80;0.80;;;13.20;47.40;;;;;;10413574;28;20240;-74
2020/12/24 03:25:38;;;;;;;1.80;0.90;;;13.10;47.50;;;;;;10420231;28;20236;-74
2020/12/24 03:30:40;;;;;;;1.00;0.70;;;13.00;47.40;;;;;;10418291;28;20313;-74
2020/12/24 03:35:42;;;;;;;0.77;0.70;;;13.00;47.40;;;;;;10407332;28;20706;-74
2020/12/24 03:40:45;;;;;;;1.33;0.70;;;12.90;47.30;;;;;;10419076;28;20240;-74
2020/12/24 03:45:47;;;;;;;2.50;0.80;;;12.90;47.30;;;;;;10415828;28;20240;-74
2020/12/24 03:50:49;;;;;;;0.80;0.80;;;12.90;47.50;;;;;;10414482;28;20308;-74
2020/12/24 03:55:52;;;;;;;1.20;1.10;;;12.80;47.40;;;;;;10425641;28;20279;-74
2020/12/24 04:00:55;;;;;;;0.70;0.70;;;12.90;47.30;;;;;;10418116;28;20265;-74
2020/12/24 04:05:57;;;;;;;0.70;0.70;;;12.90;47.40;;;;;;10410354;28;20313;-74
2020/12/24 04:11:00;;;;;;;0.60;0.60;;;12.80;47.10;;;;;;10411837;28;20228;-74
2020/12/24 04:16:02;;;;;;;0.70;0.70;;;12.80;46.80;;;;;;10418281;28;20234;-74
2020/12/24 04:21:04;;;;;;;1.43;0.70;;;12.70;46.60;;;;;;10408308;28;20234;-74
2020/12/24 04:26:08;;;;;;;0.90;0.80;;;12.70;46.40;;;;;;10417532;28;20240;-73
2020/12/24 04:31:10;;;;;;;0.83;0.70;;;12.50;46.60;;;;;;10409162;28;20226;-73
2020/12/24 04:36:14;;;;;;;1.07;0.73;;;12.40;46.80;;;;;;10409411;28;20592;-73
2020/12/24 04:41:17;;;;;;;0.67;0.60;;;12.30;46.90;;;;;;10426441;28;20234;-74
2020/12/24 04:46:25;;;;;;;0.60;0.60;;;12.20;46.90;;;;;;10416592;28;20239;-74
2020/12/24 04:51:29;;;;;;;0.87;0.80;;;12.20;47.00;;;;;;10410436;28;20240;-74
2020/12/24 04:56:32;;;;;;;0.70;0.70;;;12.20;46.90;;;;;;10418336;28;20229;-74
2020/12/24 05:01:34;;;;;;;1.00;0.60;;;12.10;46.80;;;;;;10416752;28;20236;-74
2020/12/24 05:06:37;;;;;;;0.60;0.50;;;12.10;46.90;;;;;;10420904;28;20229;-74
2020/12/24 05:11:44;;;;;;;1.33;0.93;;;12.00;46.90;;;;;;10425867;28;20213;-74
2020/12/24 05:16:57;;;;;;;1.00;0.90;;;12.00;47.10;;;;;;10414290;28;20229;-74
2020/12/24 05:22:15;;;;;;;0.60;0.60;;;12.00;47.20;;;;;;10421390;28;20590;-74
2020/12/24 05:27:20;;;;;;;1.37;0.70;;;11.90;47.40;;;;;;10423653;28;20235;-74
2020/12/24 05:32:27;;;;;;;1.37;0.83;;;11.90;47.40;;;;;;10414435;28;20222;-74
2020/12/24 05:37:29;;;;;;;0.87;0.50;;;11.90;47.50;;;;;;10419593;28;20240;-73
2020/12/24 05:42:32;;;;;;;1.07;0.57;;;11.80;47.40;;;;;;10430062;28;20625;-74
2020/12/24 05:47:34;;;;;;;0.60;0.60;;;11.70;47.40;;;;;;10432771;28;20234;-73
2020/12/24 05:52:37;;;;;;;0.50;0.50;;;11.70;47.40;;;;;;10413033;28;20232;-73
2020/12/24 05:57:41;;;;;;;1.93;1.77;;;11.60;47.40;;;;;;10417239;28;20761;-74
2020/12/24 06:03:01;;;;;;;0.80;0.80;;;11.60;47.90;;;;;;10421350;28;20221;-74
2020/12/24 06:08:16;;;;;;;0.97;0.60;;;11.40;47.90;;;;;;10428258;28;20324;-73
2020/12/24 06:13:33;;;;;;;2.10;0.60;;;11.40;47.20;;;;;;10422057;28;20570;-73
2020/12/24 06:18:37;;;;;;;1.37;0.80;;;11.30;47.20;;;;;;10418613;28;20229;-74
2020/12/24 06:23:44;;;;;;;1.53;0.70;;;11.30;47.00;;;;;;10424226;28;20232;-74
2020/12/24 06:28:50;;;;;;;2.63;1.00;;;11.20;46.60;;;;;;10411388;28;20238;-73
2020/12/24 06:33:53;;;;;;;0.90;0.60;;;11.20;47.00;;;;;;10421962;28;20230;-73
2020/12/24 06:38:55;;;;;;;0.50;0.50;;;11.10;46.80;;;;;;10421207;28;20229;-73
2020/12/24 06:43:58;;;;;;;0.60;0.60;;;11.00;46.70;;;;;;10420202;28;20233;-73
2020/12/24 06:49:05;;;;;;;0.73;0.73;;;11.00;46.70;;;;;;10422796;28;20226;-73
2020/12/24 06:54:19;;;;;;;0.70;0.67;;;10.90;47.10;;;;;;10415159;28;20589;-73
2020/12/24 06:59:22;;;;;;;1.23;0.77;;;10.90;46.80;;;;;;10415164;28;20242;-73
2020/12/24 07:04:35;;;;;;;2.83;2.03;;;10.70;47.10;;;;;;10418882;28;20228;-73
2020/12/24 07:09:47;;;;;;;1.90;1.10;;;10.60;47.30;;;;;;10409918;28;20240;-73
2020/12/24 07:14:50;;;;;;;1.67;1.00;;;10.60;47.70;;;;;;10415259;28;20243;-73
2020/12/24 07:19:56;;;;;;;1.70;1.20;;;10.60;47.60;;;;;;10417114;28;20236;-73
2020/12/24 07:25:00;;;;;;;3.00;2.80;;;10.60;47.70;;;;;;10419562;28;20232;-74
2020/12/24 07:30:08;;;;;;;2.47;2.20;;;10.60;47.70;;;;;;10408096;28;20228;-73
2020/12/24 07:35:16;;;;;;;2.47;2.13;;;10.50;47.60;;;;;;10419965;28;20226;-73
2020/12/24 07:40:19;;;;;;;2.60;2.40;;;10.50;47.70;;;;;;10413969;28;20234;-73
2020/12/24 07:45:24;;;;;;;3.00;2.70;;;10.50;47.40;;;;;;10414458;28;20243;-73
2020/12/24 07:50:30;;;;;;;3.10;2.00;;;10.50;47.40;;;;;;10417088;28;20570;-73
2020/12/24 07:55:46;;;;;;;2.67;1.80;;;10.40;47.50;;;;;;10413081;28;20272;-73
2020/12/24 08:00:52;;;;;;;1.63;1.20;;;10.40;47.70;;;;;;10412897;28;20230;-73
2020/12/24 08:06:03;;;;;;;1.80;1.70;;;10.30;47.50;;;;;;10414002;28;20313;-73
2020/12/24 08:11:07;;;;;;;1.43;1.30;;;10.30;47.50;;;;;;10407107;28;20248;-73
2020/12/24 08:16:12;;;;;;;2.00;1.50;;;10.30;47.50;;;;;;10410520;28;20244;-73
2020/12/24 08:21:23;;;;;;;1.80;1.67;;;10.30;47.60;;;;;;10408307;28;20230;-73
2020/12/24 08:26:25;;;;;;;1.63;1.20;;;10.30;47.40;;;;;;10414389;28;20228;-73
2020/12/24 08:31:31;;;;;;;1.63;1.50;;;10.30;47.40;;;;;;10408149;28;20228;-73
2020/12/24 08:36:41;;;;;;;1.83;1.43;;;10.30;47.20;;;;;;10405792;28;20248;-73
2020/12/24 08:41:45;;;;;;;2.33;2.10;;;10.20;47.20;;;;;;10412139;28;20218;-73
2020/12/24 08:47:02;;;;;;;2.53;1.60;;;10.30;47.20;;;;;;10418894;28;20234;-67
2020/12/24 08:52:09;;;;;;;3.03;1.30;;;10.30;46.60;;;;;;10415214;28;20221;-67
2020/12/24 08:57:12;;;;;;;2.00;1.70;;;10.20;46.40;;;;;;10412577;28;20239;-67
2020/12/24 09:02:24;;;;;;;2.20;1.30;;;10.20;46.80;;;;;;10415243;28;20647;-67
2020/12/24 09:07:29;;;;;;;3.07;1.57;;;10.20;46.70;;;;;;10410676;28;20263;-67
2020/12/24 09:12:32;;;;;;;3.03;1.47;;;10.20;46.80;;;;;;10410437;28;20248;-67
2020/12/24 09:17:36;;;;;;;2.97;1.33;;;10.20;47.10;;;;;;10410849;28;20233;-73
2020/12/24 09:22:49;;;;;;;1.47;1.10;;;10.30;47.20;;;;;;10410513;28;20249;-73
2020/12/24 09:27:52;;;;;;;2.80;1.30;;;10.40;47.10;;;;;;10406211;28;20583;-74
2020/12/24 09:32:57;;;;;;;2.10;1.33;;;10.60;47.40;;;;;;10420772;28;20240;-74
2020/12/24 09:37:59;;;;;;;3.07;1.30;;;10.80;46.60;;;;;;10415725;28;20309;-74
2020/12/24 09:43:01;;;;;;;2.13;1.00;;;10.90;46.60;;;;;;10409463;28;20229;-73
2020/12/24 09:48:05;;;;;;;1.57;1.03;;;11.10;46.40;;;;;;10422317;28;20288;-73
2020/12/24 09:53:07;;;;;;;1.57;0.87;;;11.20;45.70;;;;;;10415780;28;20283;-73
2020/12/24 09:58:09;;;;;;;3.63;1.20;;;11.30;45.90;;;;;;10422908;28;20230;-73
2020/12/24 10:03:12;;;;;;;2.87;1.50;;;11.40;45.70;;;;;;10416893;28;20220;-73
2020/12/24 10:08:14;;;;;;;2.17;1.07;;;11.50;45.40;;;;;;10413754;28;20300;-73
2020/12/24 10:13:16;;;;;;;1.33;0.90;;;11.60;45.50;;;;;;10414702;28;20225;-74
2020/12/24 10:18:20;;;;;;;1.23;0.80;;;11.80;45.40;;;;;;10412214;28;20854;-74
2020/12/24 10:23:22;;;;;;;2.13;1.03;;;12.00;44.30;;;;;;10423118;28;20222;-74
2020/12/24 10:28:25;;;;;;;2.30;1.67;;;12.00;44.60;;;;;;10413644;28;20226;-73
2020/12/24 10:33:28;;;;;;;1.10;1.00;;;12.10;44.30;;;;;;10411200;28;20605;-74
2020/12/24 10:38:30;;;;;;;1.60;0.83;;;12.10;43.90;;;;;;10414381;28;20233;-74
2020/12/24 10:43:33;;;;;;;1.03;0.80;;;12.20;44.30;;;;;;10417412;28;20232;-74
2020/12/24 10:48:36;;;;;;;1.00;0.90;;;12.20;44.00;;;;;;10420816;28;20609;-74
2020/12/24 10:53:39;;;;;;;1.73;0.90;;;12.20;43.60;;;;;;10416259;28;20744;-73
2020/12/24 10:58:42;;;;;;;1.43;0.90;;;12.30;44.30;;;;;;10415161;28;20234;-74
2020/12/24 11:03:46;;;;;;;3.10;0.80;;;12.30;43.60;;;;;;10412550;28;20256;-74
2020/12/24 11:08:50;;;;;;;1.73;0.80;;;12.40;43.50;;;;;;10410639;28;20225;-74
2020/12/24 11:13:52;;;;;;;1.67;1.10;;;12.40;42.90;;;;;;10417178;28;20686;-74
2020/12/24 11:18:55;;;;;;;0.83;0.80;;;12.50;43.60;;;;;;10411387;28;20224;-74
2020/12/24 11:24:04;;;;;;;2.20;0.90;;;12.50;43.10;;;;;;10412438;28;20234;-74
2020/12/24 11:29:08;;;;;;;1.20;1.10;;;12.50;42.80;;;;;;10410943;28;20675;-73
2020/12/24 11:34:11;;;;;;;2.07;1.27;;;12.50;42.70;;;;;;10408786;28;20257;-73
2020/12/24 11:39:13;;;;;;;2.30;1.30;;;12.40;43.00;;;;;;10425116;28;20662;-74
2020/12/24 11:44:16;;;;;;;1.47;0.77;;;12.40;42.90;;;;;;10412780;28;20312;-73
2020/12/24 11:49:19;;;;;;;1.40;1.00;;;12.40;42.70;;;;;;10415952;28;20229;-73
2020/12/24 11:54:21;;;;;;;1.97;1.47;;;12.30;42.90;;;;;;10415991;28;20236;-74
2020/12/24 11:59:23;;;;;;;2.00;1.10;;;12.30;43.00;;;;;;10407634;28;20232;-74
2020/12/24 12:04:27;;;;;;;2.67;0.97;;;12.30;43.40;;;;;;10416809;28;20595;-74
2020/12/24 12:09:29;;;;;;;1.13;0.80;;;12.30;43.20;;;;;;10412935;28;20237;-73
2020/12/24 12:14:32;;;;;;;1.53;0.93;;;12.30;43.20;;;;;;10416207;28;20236;-74
2020/12/24 12:19:35;;;;;;;0.83;0.80;;;12.20;43.10;;;;;;10407006;28;20229;-74
2020/12/24 12:24:37;;;;;;;1.83;0.90;;;12.20;43.10;;;;;;10418125;28;20237;-74
2020/12/24 12:29:39;;;;;;;1.20;0.87;;;12.20;43.10;;;;;;10406413;28;20614;-74
2020/12/24 12:34:42;;;;;;;1.30;0.90;;;12.20;43.30;;;;;;10411336;28;20313;-74
2020/12/24 12:39:44;;;;;;;0.93;0.63;;;12.20;42.90;;;;;;10407276;28;20249;-74
2020/12/24 12:44:48;;;;;;;5.63;4.60;;;12.10;43.10;;;;;;10413658;28;20724;-74
2020/12/24 12:49:51;;;;;;;4.90;3.00;;;12.10;43.10;;;;;;10417428;28;20598;-74
2020/12/24 12:54:53;;;;;;;5.13;3.83;;;12.10;42.90;;;;;;10409083;28;20233;-74
2020/12/24 12:59:55;;;;;;;3.53;2.80;;;12.00;43.30;;;;;;10420245;28;20231;-74
2020/12/24 13:04:58;;;;;;;2.13;1.77;;;12.00;43.30;;;;;;10411572;28;20693;-74
2020/12/24 13:10:00;;;;;;;2.30;1.70;;;12.00;43.10;;;;;;10408295;28;20229;-74
2020/12/24 13:15:03;;;;;;;2.10;1.60;;;12.00;43.20;;;;;;10410038;28;20218;-74
2020/12/24 13:20:07;;;;;;;1.33;1.10;;;12.00;43.00;;;;;;10405790;28;20264;-73
2020/12/24 13:25:09;;;;;;;2.70;2.10;;;12.00;43.00;;;;;;10425209;28;20239;-73
2020/12/24 13:30:28;;;;;;;1.33;1.20;;;12.00;43.20;;;;;;10415389;28;20229;-74
2020/12/24 13:35:31;;;;;;;2.20;1.53;;;12.00;43.20;;;;;;10416814;28;20225;-74
2020/12/24 13:40:34;;;;;;;1.93;1.10;;;11.90;43.00;;;;;;10418419;28;20237;-74
2020/12/24 13:45:36;;;;;;;1.20;1.10;;;11.90;43.10;;;;;;10423360;28;20244;-74
2020/12/24 13:50:40;;;;;;;2.20;1.50;;;11.90;43.30;;;;;;10417055;28;20309;-74
2020/12/24 13:55:44;;;;;;;6.07;4.40;;;11.90;43.20;;;;;;10422921;28;20235;-74
2020/12/24 14:00:46;;;;;;;2.30;1.50;;;11.90;43.20;;;;;;10415584;28;20230;-74
2020/12/24 14:05:49;;;;;;;2.33;2.00;;;12.00;43.40;;;;;;10415669;28;20729;-73
2020/12/24 14:10:51;;;;;;;1.53;1.43;;;12.00;43.10;;;;;;10418711;28;20229;-67
2020/12/24 14:15:53;;;;;;;1.97;1.70;;;12.00;43.30;;;;;;10416612;28;20229;-73
2020/12/24 14:20:56;;;;;;;1.60;1.50;;;12.00;43.10;;;;;;10411696;28;20234;-74
2020/12/24 14:25:59;;;;;;;2.10;1.20;;;12.00;42.90;;;;;;10422827;28;20238;-74
2020/12/24 14:31:01;;;;;;;1.60;1.00;;;12.00;43.00;;;;;;10410955;28;20450;-74
2020/12/24 14:36:04;;;;;;;2.03;1.07;;;12.00;43.10;;;;;;10423708;28;20867;-67
2020/12/24 14:41:07;;;;;;;1.20;0.80;;;12.00;42.90;;;;;;10411375;28;20229;-67
2020/12/24 14:46:10;;;;;;;2.73;1.93;;;11.90;43.10;;;;;;10427640;28;20495;-73
2020/12/24 14:51:13;;;;;;;2.47;1.40;;;11.80;43.20;;;;;;10421266;28;20613;-73
2020/12/24 14:56:15;;;;;;;1.10;1.07;;;11.70;43.20;;;;;;10418809;28;20239;-73
2020/12/24 15:01:17;;;;;;;1.33;1.20;;;11.60;43.30;;;;;;10409774;28;20229;-73
2020/12/24 15:06:20;;;;;;;1.20;1.10;;;11.60;43.40;;;;;;10419154;28;20592;-73
2020/12/24 15:11:22;;;;;;;1.33;1.10;;;11.60;43.30;;;;;;10409523;28;20222;-73
2020/12/24 15:16:25;;;;;;;0.90;0.90;;;11.60;43.40;;;;;;10415429;28;20236;-73
2020/12/24 15:21:28;;;;;;;1.20;1.10;;;11.50;43.60;;;;;;10409630;28;20646;-73
2020/12/24 15:26:30;;;;;;;1.30;1.20;;;11.50;44.10;;;;;;10413479;28;20241;-74
2020/12/24 15:31:33;;;;;;;2.50;2.30;;;11.40;43.30;;;;;;10416229;28;20554;-73
2020/12/24 15:36:38;;;;;;;2.73;1.80;;;11.40;43.60;;;;;;10413727;28;20727;-74
2020/12/24 15:41:40;;;;;;;2.67;2.40;;;11.40;43.80;;;;;;10417357;28;20226;-73
2020/12/24 15:46:42;;;;;;;2.03;1.83;;;11.30;43.60;;;;;;10422243;28;20225;-73
2020/12/24 15:51:46;;;;;;;1.53;1.43;;;11.30;43.60;;;;;;10410728;28;20217;-74
2020/12/24 15:56:48;;;;;;;1.63;1.53;;;11.30;43.60;;;;;;10416263;28;20233;-73
2020/12/24 16:01:50;;;;;;;1.20;1.10;;;11.30;43.60;;;;;;10407696;28;20229;-73
2020/12/24 16:06:53;;;;;;;1.60;1.10;;;11.30;43.60;;;;;;10420647;28;20218;-73
2020/12/24 16:11:56;;;;;;;1.17;1.00;;;11.20;43.50;;;;;;10412098;28;20217;-73
2020/12/24 16:16:58;;;;;;;1.70;1.20;;;11.20;43.60;;;;;;10411892;28;20222;-73
2020/12/24 16:22:01;;;;;;;2.00;1.30;;;11.20;43.60;;;;;;10411665;28;20232;-73
2020/12/24 16:27:03;;;;;;;1.47;1.07;;;11.20;43.50;;;;;;10407980;28;20300;-73
2020/12/24 16:32:05;;;;;;;0.90;0.90;;;11.20;43.40;;;;;;10412287;28;20225;-73
2020/12/24 16:37:08;;;;;;;1.70;0.87;;;11.20;43.20;;;;;;10414728;28;20225;-73
2020/12/24 16:42:11;;;;;;;1.70;1.20;;;11.20;43.20;;;;;;10409981;28;20235;-73
2020/12/24 16:47:13;;;;;;;1.83;1.37;;;11.20;43.40;;;;;;10420981;28;20721;-73
2020/12/24 16:52:16;;;;;;;1.60;1.20;;;11.10;43.40;;;;;;10406261;28;20226;-73
2020/12/24 16:57:18;;;;;;;2.37;1.50;;;11.10;43.30;;;;;;10417306;28;20328;-73
2020/12/24 17:02:20;;;;;;;3.63;2.87;;;11.10;43.50;;;;;;10416819;28;20313;-73
2020/12/24 17:07:24;;;;;;;2.37;2.10;;;11.10;43.40;;;;;;10428591;28;20216;-73
2020/12/24 17:12:26;;;;;;;3.93;2.90;;;11.00;43.30;;;;;;10418850;28;20600;-73
2020/12/24 17:17:29;;;;;;;1.80;1.70;;;11.10;43.50;;;;;;10421564;28;20236;-73
2020/12/24 17:22:32;;;;;;;2.83;2.00;;;11.00;43.40;;;;;;10429475;28;20240;-73
2020/12/24 17:27:34;;;;;;;4.10;2.90;;;11.00;43.40;;;;;;10415343;28;20721;-73
2020/12/24 17:32:36;;;;;;;2.73;2.10;;;11.00;43.50;;;;;;10419440;28;20226;-74
2020/12/24 17:37:40;;;;;;;3.37;2.47;;;11.00;43.40;;;;;;10421287;28;20244;-73
2020/12/24 17:42:42;;;;;;;2.17;1.97;;;11.00;43.40;;;;;;10419663;28;20238;-73
2020/12/24 17:47:45;;;;;;;2.50;2.30;;;11.10;43.40;;;;;;10429905;28;20233;-74
2020/12/24 17:52:48;;;;;;;3.67;2.00;;;11.10;43.40;;;;;;10414369;28;20221;-74
2020/12/24 17:57:50;;;;;;;2.23;2.03;;;11.10;43.20;;;;;;10422831;28;20236;-74
2020/12/24 18:02:52;;;;;;;2.40;2.20;;;11.10;43.30;;;;;;10413298;28;20224;-74
2020/12/24 18:07:55;;;;;;;2.30;2.10;;;11.10;43.40;;;;;;10412199;28;20245;-74
2020/12/24 18:12:57;;;;;;;3.27;2.70;;;11.10;43.20;;;;;;10416263;28;20226;-74
2020/12/24 18:18:00;;;;;;;2.07;1.93;;;11.10;43.20;;;;;;10411713;28;20722;-74
2020/12/24 18:23:03;;;;;;;2.50;1.90;;;11.20;43.30;;;;;;10425264;28;20225;-73
2020/12/24 18:28:06;;;;;;;1.37;0.97;;;11.20;43.30;;;;;;10411220;28;20238;-73
2020/12/24 18:33:09;;;;;;;1.00;0.90;;;11.20;43.20;;;;;;10423541;28;20233;-73
2020/12/24 18:38:12;;;;;;;1.33;1.10;;;11.20;43.30;;;;;;10411198;28;20613;-73
2020/12/24 18:43:15;;;;;;;2.13;1.20;;;11.20;43.30;;;;;;10425666;28;20246;-73
2020/12/24 18:48:18;;;;;;;1.13;1.03;;;11.20;43.40;;;;;;10422401;28;20509;-73
2020/12/24 18:53:21;;;;;;;1.50;1.20;;;11.20;43.50;;;;;;10412925;28;20224;-73
2020/12/24 18:58:23;;;;;;;1.87;1.10;;;11.20;43.60;;;;;;10418569;28;20232;-73
2020/12/24 19:03:26;;;;;;;1.83;0.90;;;11.20;43.40;;;;;;10419924;28;20222;-73
2020/12/24 19:08:29;;;;;;;1.20;1.10;;;11.20;43.50;;;;;;10418175;28;20622;-73
2020/12/24 19:13:31;;;;;;;1.17;1.07;;;11.10;43.50;;;;;;10423317;28;20236;-74
2020/12/24 19:18:36;;;;;;;1.30;1.00;;;11.00;43.70;;;;;;10409122;28;20714;-73
2020/12/24 19:23:39;;;;;;;1.13;1.00;;;11.00;44.00;;;;;;10417604;28;20226;-74
2020/12/24 19:28:42;;;;;;;1.40;1.30;;;11.00;44.10;;;;;;10415645;28;20225;-74
2020/12/24 19:33:45;;;;;;;1.50;1.40;;;11.00;44.20;;;;;;10419104;28;20764;-74
2020/12/24 19:38:49;;;;;;;1.93;1.77;;;10.90;44.30;;;;;;10413330;28;20233;-74
2020/12/24 19:43:53;;;;;;;1.60;1.47;;;10.90;44.40;;;;;;10414654;28;20602;-74
2020/12/24 19:48:55;;;;;;;1.53;1.43;;;10.90;44.30;;;;;;10413421;28;20249;-73
2020/12/24 19:53:58;;;;;;;1.40;1.30;;;10.90;44.20;;;;;;10414801;28;20315;-73
2020/12/24 19:59:00;;;;;;;1.50;1.40;;;10.90;44.50;;;;;;10415182;28;20247;-74
2020/12/24 20:04:02;;;;;;;1.40;1.30;;;10.90;44.40;;;;;;10421711;28;20221;-73
2020/12/24 20:09:05;;;;;;;1.97;1.87;;;10.90;44.40;;;;;;10414174;28;20312;-73
2020/12/24 20:14:07;;;;;;;1.90;1.80;;;10.90;44.70;;;;;;10421400;28;20233;-73
2020/12/24 20:19:10;;;;;;;2.20;1.50;;;10.90;44.50;;;;;;10412184;28;20265;-73
2020/12/24 20:24:13;;;;;;;1.30;1.20;;;10.90;44.40;;;;;;10420799;28;20259;-73
2020/12/24 20:29:15;;;;;;;1.10;1.10;;;10.80;44.40;;;;;;10415822;28;20304;-73
2020/12/24 20:34:17;;;;;;;3.73;3.43;;;10.80;44.40;;;;;;10406404;28;20237;-73
2020/12/24 20:39:20;;;;;;;7.47;4.93;;;10.80;44.50;;;;;;10422520;28;20260;-73
2020/12/24 20:44:22;;;;;;;3.10;2.10;;;10.70;44.50;;;;;;10414928;28;20592;-73
2020/12/24 20:49:25;;;;;;;2.13;1.87;;;10.70;44.60;;;;;;10414394;28;20313;-67
2020/12/24 20:54:29;;;;;;;1.80;1.70;;;10.70;44.70;;;;;;10415018;28;20236;-67
2020/12/24 20:59:31;;;;;;;1.70;1.60;;;10.70;44.80;;;;;;10415846;28;20233;-67
2020/12/24 21:04:33;;;;;;;5.50;4.57;;;10.80;44.80;;;;;;10410734;28;20235;-67
2020/12/24 21:09:36;;;;;;;3.30;3.00;;;10.70;44.80;;;;;;10421673;28;20677;-67
2020/12/24 21:14:39;;;;;;;3.93;2.30;;;10.70;44.90;;;;;;10423863;28;20817;-67
2020/12/24 21:19:41;;;;;;;1.50;1.40;;;10.70;44.70;;;;;;10409507;28;20341;-67
2020/12/24 21:24:44;;;;;;;1.47;1.37;;;10.60;44.70;;;;;;10421299;28;20233;-67
2020/12/24 21:29:47;;;;;;;1.37;1.27;;;10.60;44.80;;;;;;10417298;28;20264;-67
2020/12/24 21:34:49;;;;;;;1.50;1.40;;;10.50;44.70;;;;;;10411490;28;20237;-67
2020/12/24 21:39:52;;;;;;;1.50;1.40;;;10.40;44.70;;;;;;10420488;28;20233;-67
2020/12/24 21:44:54;;;;;;;1.90;1.77;;;10.30;45.10;;;;;;10414430;28;20225;-67
2020/12/24 21:49:56;;;;;;;2.50;1.63;;;10.20;44.90;;;;;;10429830;28;20246;-67
2020/12/24 21:54:59;;;;;;;0.93;0.93;;;10.10;44.80;;;;;;10421598;28;20221;-67
2020/12/24 22:00:02;;;;;;;1.30;1.00;;;10.10;45.00;;;;;;10420387;28;20224;-68
2020/12/24 22:05:05;;;;;;;2.00;1.13;;;10.10;44.90;;;;;;10417608;28;20232;-67
2020/12/24 22:10:08;;;;;;;1.00;1.00;;;10.10;44.80;;;;;;10416560;28;20221;-68
2020/12/24 22:15:10;;;;;;;0.97;0.90;;;10.10;44.80;;;;;;10414915;28;20236;-67
2020/12/24 22:20:12;;;;;;;1.10;1.00;;;10.10;45.00;;;;;;10425583;28;20248;-68
2020/12/24 22:25:15;;;;;;;1.20;1.10;;;10.00;44.90;;;;;;10424958;28;20230;-67
2020/12/24 22:30:17;;;;;;;0.70;0.70;;;10.00;45.10;;;;;;10417604;28;20592;-67
2020/12/24 22:35:20;;;;;;;0.97;0.80;;;10.00;45.10;;;;;;10429365;28;20299;-67
2020/12/24 22:40:24;;;;;;;1.03;1.00;;;10.00;45.10;;;;;;10411425;28;20225;-67
2020/12/24 22:45:26;;;;;;;0.70;0.70;;;10.10;45.40;;;;;;10427549;28;20225;-67
2020/12/24 22:50:28;;;;;;;0.90;0.90;;;10.10;45.20;;;;;;10425286;28;20739;-67
2020/12/24 22:55:31;;;;;;;0.90;0.90;;;10.10;45.10;;;;;;10417299;28;20229;-67
2020/12/24 23:00:33;;;;;;;0.80;0.80;;;10.10;45.30;;;;;;10414213;28;20729;-67
2020/12/24 23:05:36;;;;;;;0.90;0.90;;;10.20;45.30;;;;;;10430404;28;20605;-67
2020/12/24 23:10:39;;;;;;;0.90;0.90;;;10.10;45.20;;;;;;10412839;28;20230;-67
2020/12/24 23:15:41;;;;;;;0.70;0.70;;;10.20;45.20;;;;;;10416519;28;20240;-67
2020/12/24 23:20:43;;;;;;;0.83;0.83;;;10.20;45.10;;;;;;10416537;28;20229;-67
2020/12/24 23:25:47;;;;;;;1.00;1.00;;;10.20;45.20;;;;;;10428653;28;20241;-67
2020/12/24 23:30:49;;;;;;;1.10;1.00;;;10.20;45.20;;;;;;10417657;28;20272;-67
2020/12/24 23:35:53;;;;;;;1.10;1.10;;;10.20;45.00;;;;;;10413793;28;20234;-67
2020/12/24 23:40:57;;;;;;;0.90;0.90;;;10.10;45.00;;;;;;10412984;28;20321;-67
2020/12/24 23:45:59;;;;;;;1.03;1.03;;;10.10;45.10;;;;;;10419388;28;20228;-67
2020/12/24 23:51:01;;;;;;;1.20;1.20;;;10.10;45.20;;;;;;10417316;28;20237;-67
2020/12/24 23:56:04;;;;;;;1.17;1.17;;;10.00;45.10;;;;;;10413379;28;20229;-68
